AYT weather

Antalya International Airport
Antalya, Antalya Province, Turkey

Public forecast

Using degrees Celsius for public forecast. Weather courtesy of forecast.io.

Current aviation weather report (METAR) for Antalya International Airport

Retrieved 2019/10/21 03:20 UTC (39 minutes ago):

LTAI 210320Z 34006KT CAVOK 19/04 Q1016 NOSIG RMK RWY18C 34007KT RWY36R 33008KT RWY18L 32008KT

Aviation forecast (TAF) for Antalya International Airport

Retrieved 2019-10-21 00:00 UTC (4 hours ago):

TAF LTAI 202240Z 2100/2124 34009KT CAVOK BECMG 2109/2112 18012KT SCT030 BECMG 2115/2118 34006KT CAVOK